createdAt,value
2022-08-30T00:01:17.083Z,99202.21
2022-08-30T00:03:47.248Z,99204.54
2022-08-30T00:06:19.863Z,99203.42
2022-08-30T00:08:51.927Z,99202.19
2022-08-30T00:11:25.760Z,99203.59
2022-08-30T00:13:56.139Z,99202.74
2022-08-30T00:16:27.331Z,99202.66
2022-08-30T00:18:56.334Z,99206.27
2022-08-30T00:21:24.479Z,99204.83
2022-08-30T00:23:52.449Z,99201.52
2022-08-30T00:26:20.475Z,99199.45
2022-08-30T00:28:51.324Z,99200.30
2022-08-30T00:31:19.261Z,99200.15
2022-08-30T00:33:47.283Z,99198.37
2022-08-30T00:36:16.483Z,99201.19
2022-08-30T00:38:44.417Z,99204.83
2022-08-30T00:41:12.529Z,99208.59
2022-08-30T00:43:44.730Z,99208.34
2022-08-30T00:46:12.593Z,99205.50
2022-08-30T00:48:43.991Z,99203.16
2022-08-30T00:51:14.865Z,99204.14
2022-08-30T00:53:48.905Z,99204.02
2022-08-30T00:56:18.525Z,99209.02
2022-08-30T00:58:51.114Z,99212.18
2022-08-30T01:01:24.704Z,99216.98
2022-08-30T01:03:53.932Z,99218.46
2022-08-30T01:06:24.384Z,99217.87
2022-08-30T01:09:03.401Z,99213.21
2022-08-30T01:11:36.410Z,99220.17
2022-08-30T01:14:07.323Z,99220.42
2022-08-30T01:16:39.894Z,99218.62
2022-08-30T01:19:37.013Z,99224.25
2022-08-30T01:22:24.163Z,99219.09
2022-08-30T01:24:56.622Z,99214.30
2022-08-30T01:27:28.888Z,99219.03
2022-08-30T01:30:00.391Z,99223.88
2022-08-30T01:32:34.258Z,99222.17
2022-08-30T01:35:02.518Z,99218.70
2022-08-30T01:37:33.578Z,99213.43
2022-08-30T01:40:02.849Z,99210.63
2022-08-30T01:42:33.057Z,99215.44
2022-08-30T01:45:00.867Z,99212.88
2022-08-30T01:47:30.378Z,99208.67
2022-08-30T01:49:58.847Z,99213.63
2022-08-30T01:52:27.685Z,99213.66
2022-08-30T01:54:55.616Z,99216.89
2022-08-30T01:57:27.188Z,99215.91
2022-08-30T01:59:57.765Z,99214.45
2022-08-30T02:02:29.470Z,99214.15
2022-08-30T02:05:05.359Z,99215.37
2022-08-30T02:07:33.583Z,99212.66
2022-08-30T02:10:01.506Z,99219.70
2022-08-30T02:12:33.712Z,99219.52
2022-08-30T02:15:02.964Z,99223.20
2022-08-30T02:17:30.861Z,99221.02
2022-08-30T02:20:05.019Z,99223.39
2022-08-30T02:22:33.161Z,99221.77
2022-08-30T02:25:03.302Z,99224.80
2022-08-30T02:27:33.901Z,99224.23
2022-08-30T02:30:10.234Z,99220.89
2022-08-30T02:32:38.175Z,99225.92
2022-08-30T02:35:06.777Z,99223.35
2022-08-30T02:37:37.738Z,99227.23
2022-08-30T02:40:10.336Z,99231.63
2022-08-30T02:42:46.125Z,99229.30
2022-08-30T02:45:15.818Z,99233.30
2022-08-30T02:47:47.067Z,99232.77
2022-08-30T02:50:18.317Z,99235.02
2022-08-30T02:52:48.364Z,99240.82
2022-08-30T02:55:17.262Z,99239.41
2022-08-30T02:57:45.409Z,99238.07
2022-08-30T03:00:17.091Z,99241.69
2022-08-30T03:02:44.716Z,99245.37
2022-08-30T03:05:14.761Z,99250.61
2022-08-30T03:07:43.427Z,99251.77
2022-08-30T03:10:13.976Z,99250.49
2022-08-30T03:12:43.055Z,99253.98
2022-08-30T03:15:13.705Z,99257.91
2022-08-30T03:17:42.541Z,99260.45
2022-08-30T03:20:15.631Z,99263.98
2022-08-30T03:22:43.429Z,99267.35
2022-08-30T03:25:15.823Z,99271.72
2022-08-30T03:27:43.732Z,99273.54
2022-08-30T03:30:13.267Z,99276.74
2022-08-30T03:32:42.073Z,99275.32
2022-08-30T03:35:17.134Z,99276.10
2022-08-30T03:37:49.938Z,99277.38
2022-08-30T03:40:26.025Z,99289.03
2022-08-30T03:42:56.196Z,99290.23
2022-08-30T03:45:24.632Z,99285.91
2022-08-30T03:47:52.834Z,99290.98
2022-08-30T03:50:20.752Z,99294.73
2022-08-30T03:52:49.422Z,99295.34
2022-08-30T03:55:20.139Z,99295.45
2022-08-30T03:57:51.051Z,99294.71
2022-08-30T04:00:22.522Z,99302.17
2022-08-30T04:02:51.618Z,99301.67
2022-08-30T04:05:22.711Z,99304.14
2022-08-30T04:07:50.676Z,99303.01
2022-08-30T04:10:21.425Z,99308.09
2022-08-30T04:12:51.372Z,99309.64
2022-08-30T04:15:21.025Z,99308.57
2022-08-30T04:17:53.900Z,99304.48
2022-08-30T04:20:22.798Z,99306.56
2022-08-30T04:22:54.737Z,99310.59
2022-08-30T04:25:22.689Z,99312.66
2022-08-30T04:27:50.731Z,99308.59
2022-08-30T04:30:18.802Z,99312.91
2022-08-30T04:32:48.366Z,99313.86
2022-08-30T04:35:19.208Z,99314.45
2022-08-30T04:37:50.359Z,99313.75
2022-08-30T04:40:19.833Z,99314.02
2022-08-30T04:42:54.660Z,99312.99
2022-08-30T04:45:25.056Z,99310.42
2022-08-30T04:47:56.374Z,99314.90
2022-08-30T04:50:28.218Z,99321.09
2022-08-30T04:52:56.060Z,99319.48
2022-08-30T04:55:29.025Z,99319.52
2022-08-30T04:58:00.941Z,99315.32
2022-08-30T05:00:33.227Z,99314.33
2022-08-30T05:03:02.060Z,99312.27
2022-08-30T05:05:42.955Z,99310.40
2022-08-30T05:08:16.125Z,99308.49
2022-08-30T05:10:54.361Z,99309.34
2022-08-30T05:13:35.488Z,99310.54
2022-08-30T05:16:08.151Z,99309.48
2022-08-30T05:18:37.942Z,99311.39
2022-08-30T05:21:09.799Z,99311.25
2022-08-30T05:23:42.875Z,99317.59
2022-08-30T05:26:14.979Z,99314.94
2022-08-30T05:28:43.891Z,99313.74
2022-08-30T05:31:22.264Z,99305.84
2022-08-30T05:33:51.598Z,99304.56
2022-08-30T05:36:22.261Z,99308.72
2022-08-30T05:38:54.825Z,99310.84
2022-08-30T05:41:28.966Z,99302.52
2022-08-30T05:43:59.231Z,99302.59
2022-08-30T05:49:08.038Z,99303.07
2022-08-30T05:51:42.955Z,99306.40
2022-08-30T05:54:16.969Z,99306.54
2022-08-30T05:56:51.161Z,99306.80
2022-08-30T05:59:19.411Z,99314.05
2022-08-30T06:01:48.715Z,99314.67
2022-08-30T06:04:17.729Z,99318.55
2022-08-30T06:06:48.628Z,99319.17
2022-08-30T06:09:16.432Z,99315.67
2022-08-30T06:11:50.745Z,99318.83
2022-08-30T06:14:18.789Z,99315.42
2022-08-30T06:16:48.109Z,99314.27
2022-08-30T06:19:17.691Z,99315.90
2022-08-30T06:21:51.788Z,99314.70
2022-08-30T06:24:27.791Z,99316.98
2022-08-30T06:27:08.431Z,99316.42
2022-08-30T06:29:40.984Z,99319.59
2022-08-30T06:32:09.669Z,99319.15
2022-08-30T06:34:41.430Z,99312.66
2022-08-30T06:37:09.389Z,99313.95
2022-08-30T06:39:37.271Z,99313.74
2022-08-30T06:42:05.989Z,99311.61
2022-08-30T06:44:36.376Z,99309.67
2022-08-30T06:47:08.551Z,99316.79
2022-08-30T06:49:36.609Z,99313.08
2022-08-30T06:52:05.089Z,99316.83
2022-08-30T06:54:33.489Z,99319.39
2022-08-30T06:57:04.449Z,99322.73
2022-08-30T06:59:34.301Z,99325.93
2022-08-30T07:02:03.533Z,99325.15
2022-08-30T07:04:34.089Z,99329.05
2022-08-30T07:07:02.255Z,99326.98
2022-08-30T07:12:04.550Z,99331.59
2022-08-30T07:14:37.890Z,99330.31
2022-08-30T07:17:32.604Z,99331.90
2022-08-30T07:20:06.490Z,99332.89
2022-08-30T07:22:34.690Z,99335.41
2022-08-30T07:25:03.270Z,99336.33
2022-08-30T07:27:36.009Z,99337.77
2022-08-30T07:30:06.010Z,99337.15
2022-08-30T07:32:34.350Z,99334.91
2022-08-30T07:35:02.371Z,99330.91
2022-08-30T07:37:33.031Z,99334.23
2022-08-30T07:40:01.205Z,99332.00
2022-08-30T07:42:31.990Z,99329.84
2022-08-30T07:45:03.769Z,99338.22
2022-08-30T07:47:38.469Z,99337.64
2022-08-30T07:50:07.971Z,99339.67
2022-08-30T07:55:10.490Z,99339.20
2022-08-30T07:57:38.621Z,99340.43
2022-08-30T08:00:09.049Z,99348.73
2022-08-30T08:02:43.009Z,99346.15
2022-08-30T08:05:17.059Z,99339.19
2022-08-30T08:07:47.101Z,99344.00
2022-08-30T08:10:16.978Z,99342.28
2022-08-30T08:12:46.818Z,99336.61
2022-08-30T08:15:14.862Z,99338.38
2022-08-30T08:17:45.852Z,99338.70
2022-08-30T08:20:20.345Z,99336.94
2022-08-30T08:22:51.180Z,99333.30
2022-08-30T08:25:22.470Z,99333.81
2022-08-30T08:27:57.715Z,99334.86
2022-08-30T08:30:27.903Z,99329.11
2022-08-30T08:32:58.317Z,99334.46
2022-08-30T08:35:29.289Z,99338.13
2022-08-30T08:38:01.690Z,99340.11
2022-08-30T08:40:33.583Z,99339.06
2022-08-30T08:43:09.530Z,99335.45
2022-08-30T08:45:49.593Z,99334.80
2022-08-30T08:48:45.531Z,99334.70
2022-08-30T08:51:40.030Z,99336.29
2022-08-30T08:54:22.229Z,99339.98
2022-08-30T08:56:52.730Z,99336.08
2022-08-30T08:59:21.009Z,99339.33
2022-08-30T09:01:52.209Z,99339.27
2022-08-30T09:04:29.020Z,99334.77
2022-08-30T09:07:11.292Z,99334.65
2022-08-30T09:09:46.349Z,99333.38
2022-08-30T09:12:21.249Z,99339.39
2022-08-30T09:14:55.815Z,99333.64
2022-08-30T09:17:24.516Z,99334.37
2022-08-30T09:19:56.429Z,99333.56
2022-08-30T09:22:38.446Z,99334.25
2022-08-30T09:25:12.660Z,99338.18
2022-08-30T09:27:48.660Z,99333.26
2022-08-30T09:30:24.467Z,99340.75
2022-08-30T09:32:57.931Z,99342.27
2022-08-30T09:35:38.611Z,99353.95
2022-08-30T09:38:15.693Z,99351.20
2022-08-30T09:40:47.965Z,99343.95
2022-08-30T09:43:21.102Z,99343.01
2022-08-30T09:46:09.621Z,99344.98
2022-08-30T09:48:44.991Z,99340.44
2022-08-30T09:51:14.015Z,99334.83
2022-08-30T09:56:52.082Z,99335.74
2022-08-30T09:59:40.581Z,99340.71
2022-08-30T10:02:39.970Z,99329.42
2022-08-30T10:05:26.839Z,99331.21
2022-08-30T10:08:03.975Z,99332.64
2022-08-30T10:10:51.908Z,99327.05
2022-08-30T10:13:50.373Z,99330.98
2022-08-30T10:16:36.663Z,99334.27
2022-08-30T10:19:39.223Z,99337.16
2022-08-30T10:22:33.940Z,99341.61
2022-08-30T10:25:24.718Z,99338.70
2022-08-30T10:28:02.878Z,99337.00
2022-08-30T10:30:38.429Z,99330.19
2022-08-30T10:33:19.820Z,99328.47
2022-08-30T10:36:02.280Z,99323.51
2022-08-30T10:39:05.139Z,99326.11
2022-08-30T10:41:46.731Z,99325.38
2022-08-30T10:44:32.546Z,99322.30
2022-08-30T10:47:01.932Z,99319.89
2022-08-30T10:49:36.966Z,99306.89
2022-08-30T10:52:15.469Z,99321.98
2022-08-30T10:54:50.989Z,99326.00
2022-08-30T10:57:20.330Z,99326.16
2022-08-30T10:59:54.879Z,99328.04
2022-08-30T11:02:33.300Z,99326.94
2022-08-30T11:05:15.328Z,99319.16
2022-08-30T11:08:01.179Z,99315.56
2022-08-30T11:10:58.129Z,99318.41
2022-08-30T11:13:31.960Z,99319.42
2022-08-30T11:16:19.590Z,99316.21
2022-08-30T11:18:58.608Z,99314.33
2022-08-30T11:21:43.208Z,99303.20
2022-08-30T11:24:21.121Z,99307.48
2022-08-30T11:27:00.137Z,99308.00
2022-08-30T11:29:36.071Z,99307.36
2022-08-30T11:32:13.069Z,99303.70
2022-08-30T11:34:53.588Z,99301.08
2022-08-30T11:37:43.452Z,99304.62
2022-08-30T11:40:36.171Z,99301.38
2022-08-30T11:43:40.402Z,99301.83
2022-08-30T11:46:29.683Z,99299.77
2022-08-30T11:49:36.219Z,99298.73
2022-08-30T11:52:41.569Z,99292.30
2022-08-30T11:55:34.932Z,99298.33
2022-08-30T11:58:22.168Z,99297.64
2022-08-30T12:01:40.840Z,99280.83
2022-08-30T12:04:15.282Z,99278.19
2022-08-30T12:06:50.546Z,99290.80
2022-08-30T12:09:26.711Z,99288.26
2022-08-30T12:12:03.309Z,99283.86
2022-08-30T12:14:36.168Z,99285.09
2022-08-30T12:17:32.291Z,99291.58
2022-08-30T12:20:01.129Z,99288.36
2022-08-30T12:22:38.309Z,99287.06
2022-08-30T12:25:18.548Z,99279.63
2022-08-30T12:28:20.449Z,99276.96
2022-08-30T12:31:07.048Z,99276.26
2022-08-30T12:33:48.290Z,99271.34
2022-08-30T12:36:37.538Z,99275.64
2022-08-30T12:39:19.580Z,99267.11
2022-08-30T12:41:57.949Z,99265.98
2022-08-30T12:44:30.221Z,99264.66
2022-08-30T12:47:03.608Z,99256.94
2022-08-30T12:49:42.690Z,99265.40
2022-08-30T12:52:25.768Z,99269.77
2022-08-30T12:55:19.565Z,99264.38
2022-08-30T12:58:00.773Z,99264.92
2022-08-30T13:00:34.084Z,99266.58
2022-08-30T13:03:30.119Z,99264.33
2022-08-30T13:05:59.520Z,99265.73
2022-08-30T13:08:47.119Z,99267.27
2022-08-30T13:11:33.762Z,99265.73
2022-08-30T13:14:33.100Z,99261.25
2022-08-30T13:17:23.759Z,99253.74
2022-08-30T13:20:06.503Z,99250.85
2022-08-30T13:22:36.592Z,99249.77
2022-08-30T13:25:08.669Z,99249.91
2022-08-30T13:27:43.981Z,99248.47
2022-08-30T13:30:16.658Z,99243.26
2022-08-30T13:32:45.879Z,99244.06
2022-08-30T13:35:15.681Z,99246.38
2022-08-30T13:37:49.464Z,99238.73
2022-08-30T13:40:25.771Z,99236.23
2022-08-30T13:42:54.460Z,99232.56
2022-08-30T13:45:43.418Z,99234.38
2022-08-30T13:48:25.024Z,99230.36
2022-08-30T13:50:57.504Z,99227.85
2022-08-30T13:56:15.364Z,99226.80
2022-08-30T13:58:45.032Z,99225.35
2022-08-30T14:01:16.469Z,99218.24
2022-08-30T14:06:34.352Z,99223.86
2022-08-30T14:09:05.309Z,99224.49
2022-08-30T14:11:35.472Z,99225.36
2022-08-30T14:14:32.326Z,99213.69
2022-08-30T14:16:54.253Z,99215.56
2022-08-30T14:19:22.333Z,99211.61
2022-08-30T14:21:50.435Z,99208.13
2022-08-30T14:24:21.587Z,99203.26
2022-08-30T14:26:54.769Z,99212.85
2022-08-30T14:29:25.297Z,99210.69
2022-08-30T14:32:00.418Z,99208.71
2022-08-30T14:34:32.789Z,99209.27
2022-08-30T14:37:03.675Z,99210.48
2022-08-30T14:39:32.913Z,99203.61
2022-08-30T14:42:03.450Z,99205.94
2022-08-30T14:44:55.211Z,99203.48
2022-08-30T14:47:28.784Z,99197.12
2022-08-30T14:50:02.527Z,99194.49
2022-08-30T14:52:32.443Z,99189.42
2022-08-30T14:55:08.853Z,99184.48
2022-08-30T14:57:38.959Z,99186.85
2022-08-30T15:00:11.225Z,99189.40
2022-08-30T15:02:39.656Z,99189.38
2022-08-30T15:05:12.289Z,99186.58
2022-08-30T15:07:45.424Z,99181.45
2022-08-30T15:10:19.989Z,99181.23
2022-08-30T15:12:54.039Z,99182.62
2022-08-30T15:15:23.664Z,99175.36
2022-08-30T15:17:58.087Z,99178.34
2022-08-30T15:20:30.457Z,99182.95
2022-08-30T15:22:58.657Z,99178.43
2022-08-30T15:25:29.820Z,99173.02
2022-08-30T15:27:58.657Z,99179.74
2022-08-30T15:30:26.737Z,99181.41
2022-08-30T15:32:57.337Z,99178.09
2022-08-30T15:35:25.378Z,99177.19
2022-08-30T15:37:56.017Z,99176.73
2022-08-30T15:40:28.620Z,99174.91
2022-08-30T15:42:56.897Z,99174.80
2022-08-30T15:45:27.579Z,99173.95
2022-08-30T15:47:55.698Z,99169.25
2022-08-30T15:50:24.737Z,99165.27
2022-08-30T15:52:53.278Z,99164.84
2022-08-30T15:55:21.301Z,99161.39
2022-08-30T15:57:50.024Z,99160.63
2022-08-30T16:00:19.629Z,99161.96
2022-08-30T16:02:52.121Z,99163.97
2022-08-30T16:05:21.899Z,99160.05
2022-08-30T16:07:55.132Z,99160.35
2022-08-30T16:10:23.399Z,99165.83
2022-08-30T16:12:51.357Z,99166.52
2022-08-30T16:15:20.471Z,99163.11
2022-08-30T16:17:51.298Z,99167.11
2022-08-30T16:20:19.934Z,99166.69
2022-08-30T16:22:48.457Z,99171.93
2022-08-30T16:25:23.261Z,99171.73
2022-08-30T16:27:53.838Z,99176.96
2022-08-30T16:30:22.278Z,99178.34
2022-08-30T16:32:50.718Z,99179.81
2022-08-30T16:35:21.837Z,99178.40
2022-08-30T16:37:50.018Z,99178.31
2022-08-30T16:40:24.610Z,99181.41
2022-08-30T16:42:56.619Z,99184.51
2022-08-30T16:45:27.693Z,99189.92
2022-08-30T16:47:59.949Z,99193.56
2022-08-30T16:50:27.798Z,99197.13
2022-08-30T16:52:59.538Z,99203.27
2022-08-30T16:55:28.237Z,99206.13
2022-08-30T16:57:58.777Z,99210.14
2022-08-30T17:00:28.118Z,99210.68
2022-08-30T17:03:00.098Z,99211.61
2022-08-30T17:05:34.157Z,99214.02
2022-08-30T17:08:03.388Z,99221.40
2022-08-30T17:10:33.481Z,99219.44
2022-08-30T17:13:02.657Z,99226.02
2022-08-30T17:15:33.937Z,99226.37
2022-08-30T17:18:04.990Z,99229.81
2022-08-30T17:20:38.797Z,99236.05
2022-08-30T17:23:12.437Z,99242.90
2022-08-30T17:25:45.296Z,99245.89
2022-08-30T17:28:13.597Z,99251.36
2022-08-30T17:30:44.071Z,99253.02
2022-08-30T17:33:15.478Z,99253.31
2022-08-30T17:35:49.237Z,99253.87
2022-08-30T17:38:19.313Z,99255.04
2022-08-30T17:40:48.365Z,99263.30
2022-08-30T17:43:16.897Z,99265.06
2022-08-30T17:45:44.937Z,99264.95
2022-08-30T17:48:20.678Z,99262.55
2022-08-30T17:51:00.598Z,99266.89
2022-08-30T17:53:32.072Z,99267.94
2022-08-30T17:56:05.297Z,99272.47
2022-08-30T17:58:39.599Z,99272.95
2022-08-30T18:01:19.312Z,99277.06
2022-08-30T18:03:57.138Z,99275.02
2022-08-30T18:06:36.517Z,99278.25
2022-08-30T18:09:11.817Z,99281.43
2022-08-30T18:11:40.816Z,99281.40
2022-08-30T18:14:14.777Z,99280.10
2022-08-30T18:16:53.302Z,99283.79
2022-08-30T18:19:30.937Z,99282.83
2022-08-30T18:21:59.737Z,99285.22
2022-08-30T18:24:39.549Z,99291.16
2022-08-30T18:28:17.589Z,99291.23
2022-08-30T18:30:45.497Z,99292.58
2022-08-30T18:33:14.757Z,99291.16
2022-08-30T18:38:36.138Z,99287.00
2022-08-30T18:41:08.051Z,99290.80
2022-08-30T18:43:37.677Z,99293.41
2022-08-30T18:46:09.478Z,99296.16
2022-08-30T18:48:39.821Z,99296.29
2022-08-30T18:51:21.659Z,99289.42
2022-08-30T20:24:27.445Z,99287.23
